Flight Track Log - Related Links

Times and Time Zones

All times are in EDT time to prevent confusion due to time zone crossing. See the BAW2063 flight status page for this flight to view local times or setup timezone preferences in your user account.

Time Position Orientation Groundspeed Altitude Reporting Facility
EDT Latitude Longitude Course Direction KTS MPH feet Rate Location/Type
Tue 10:20:32 AM 51.1520 -0.1660 77° East 174 200 600  Level FlightAware ADS-B
Tue 10:20:52 AM 51.1560 -0.1350 78° East 178 205 1,600 1,418 Climbing FlightAware ADS-B
Tue 10:21:27 AM 51.1610 -0.0970 78° East 202 232 1,900 -679 Climbing FlightAware ADS-B
Tue 10:21:45 AM 51.1443 -0.0595 78° East 228 262 1,000 1,400 Descending FlightAware UK
Tue 10:21:57 AM 51.1340 -0.0530 78° East 236 272 2,600 3,405 Climbing FlightAware ADS-B
Tue 10:22:22 AM 51.1100 -0.0420 164° South 251 289 3,100 -429 Climbing FlightAware ADS-B
Tue 10:22:39 AM 51.0854 -0.0317 164° South 272 313 2,300 293 Descending FlightAware UK
Tue 10:23:03 AM 51.0580 -0.0196 164° South 272 313 3,300 1,632 Climbing FlightAware UK
Tue 10:24:33 AM 50.9545 0.0308 163° South 276 318 5,400 1,000 Climbing FlightAware UK
Tue 10:25:09 AM 50.9130 0.0504 163° South 278 320 5,400  Level FlightAware UK
Tue 10:25:33 AM 50.8851 0.0637 163° South 276 318 5,400  Level FlightAware UK
Tue 10:25:51 AM 50.8641 0.0735 164° South 276 318 5,400 1,333 Level FlightAware UK
Tue 10:26:45 AM 50.8012 0.1027 164° South 282 325 7,000 3,000 Climbing FlightAware UK
Tue 10:27:07 AM 50.7790 0.1130 164° South 268 308 9,200 2,143 Climbing FlightAware ADS-B
Tue 10:27:27 AM 50.7509 0.1246 164° South 288 331 8,500 1,800 Descending FlightAware UK
Tue 10:27:47 AM 50.7280 0.1300 164° South 283 326 10,400 1,000 Climbing FlightAware ADS-B
Tue 10:28:03 AM 50.7039 0.1363 164° South 314 361 9,100 750 Descending FlightAware UK
Tue 10:28:27 AM 50.6740 0.1470 164° South 318 366 10,900 857 Climbing FlightAware ADS-B
Tue 10:28:45 AM 50.6435 0.1604 164° South 348 400 9,700 933 Descending FlightAware UK
Tue 10:29:12 AM 50.6070 0.1780 164° South 352 405 11,600 1,143 Climbing FlightAware ADS-B
Tue 10:29:27 AM 50.5777 0.1919 164° South 378 435 10,500 -909 Descending FlightAware UK
Tue 10:29:45 AM 50.5485 0.2062 163° South 382 440 11,100 5,520 Climbing FlightAware UK
Tue 10:29:52 AM 50.5430 0.2090 163° South 368 423 12,800 2,000 Climbing FlightAware ADS-B
Tue 10:30:15 AM 50.4993 0.2300 163° South 388 447 12,100 1,867 Descending FlightAware UK
Tue 10:30:37 AM 50.4680 0.2450 163° South 379 436 14,200 3,290 Climbing FlightAware ADS-B
Tue 10:31:17 AM 50.3990 0.2780 163° South 388 447 15,500 316 Climbing FlightAware ADS-B
Tue 10:31:34 AM 50.3663 0.2931 163° South 400 460 14,500 1,650 Descending FlightAware UK
Tue 10:31:57 AM 50.3290 0.3120 163° South 399 459 16,600 1,714 Climbing FlightAware ADS-B
Tue 10:32:16 AM 50.2934 0.3340 163° South 410 472 15,700 -649 Descending FlightAware UK
Tue 10:32:34 AM 50.2626 0.3548 157° South 414 476 16,200 5,077 Climbing FlightAware UK
Tue 10:32:42 AM 50.2550 0.3600 157° South 407 468 17,900 1,750 Climbing FlightAware ADS-B
Tue 10:32:58 AM 50.2214 0.3839 157° South 416 479 16,900 1,650 Descending FlightAware UK
Tue 10:33:22 AM 50.1840 0.4090 157° South 415 478 19,000 1,571 Climbing FlightAware ADS-B
Tue 10:33:40 AM 50.1472 0.4336 157° South 422 486 18,000 1,467 Descending FlightAware UK
Tue 10:34:07 AM 50.1020 0.4620 157° South 428 493 20,100 1,286 Climbing FlightAware ADS-B
Tue 10:34:22 AM 50.0706 0.4824 157° South 430 495 18,900 1,350 Descending FlightAware UK
Tue 10:34:47 AM 50.0310 0.5080 157° South 439 505 21,000 1,429 Climbing FlightAware ADS-B
Tue 10:35:04 AM 49.9917 0.5331 157° South 438 504 19,900 1,500 Descending FlightAware UK
Tue 10:35:27 AM 49.9550 0.5560 157° South 445 512 22,000 2,857 Climbing FlightAware ADS-B
Tue 10:36:07 AM 49.8810 0.6050 157° South 452 520 22,900 -218 Climbing FlightAware ADS-B
Tue 10:36:22 AM 49.8449 0.6382 157° South 448 516 21,800 1,500 Descending FlightAware UK
Tue 10:36:47 AM 49.8060 0.6830 157° South 459 528 23,900 2,719 Climbing FlightAware ADS-B
Tue 10:37:26 AM 49.7370 0.7707 141° Southeast 466 536 24,700 -407 Climbing FlightAware ADS-B
Tue 10:37:46 AM 49.7044 0.8118 141° Southeast 460 529 23,500 1,125 Descending FlightAware UK
Tue 10:37:58 AM 49.6835 0.8379 141° Southeast 471 542 25,300 1,200 Climbing FlightAware ADS-B
Tue 10:38:16 AM 49.6538 0.8752 141° Southeast 464 534 24,100 1,125 Descending FlightAware UK
Tue 10:38:30 AM 49.6298 0.9051 141° Southeast 476 548 25,900 1,167 Climbing FlightAware ADS-B
Tue 10:38:52 AM 49.5916 0.9527 141° Southeast 468 539 24,800 1,273 Descending FlightAware UK
Tue 10:39:03 AM 49.5735 0.9752 141° Southeast 479 551 26,600 1,000 Climbing FlightAware ADS-B
Tue 10:39:22 AM 49.5398 1.0170 141° Southeast 470 541 25,300 857 Descending FlightAware UK
Tue 10:39:38 AM 49.5121 1.0513 141° Southeast 484 557 27,100 2,571 Climbing FlightAware ADS-B
Tue 10:40:11 AM 49.4547 1.1223 141° Southeast 495 570 27,400 -1,320 Climbing FlightAware ADS-B
Tue 10:40:28 AM 49.4233 1.1608 141° Southeast 472 543 26,000 563 Descending FlightAware UK
Tue 10:40:43 AM 49.3968 1.1938 141° Southeast 503 579 27,700 2,850 Climbing FlightAware ADS-B
Tue 10:41:08 AM 49.3497 1.2511 142° Southeast 512 589 27,900 429 Climbing FlightAware ADS-B
Tue 10:41:39 AM 49.2896 1.3155 145° Southeast 519 597 28,100 476 Climbing FlightAware ADS-B
Tue 10:42:11 AM 49.2256 1.3779 147° Southeast 526 605 28,400 -1,224 Climbing FlightAware ADS-B
Tue 10:42:28 AM 49.1892 1.4130 147° Southeast 480 552 27,100 316 Descending FlightAware UK
Tue 10:42:49 AM 49.1461 1.4524 147° Southeast 537 618 28,600 167 Climbing FlightAware ADS-B
Tue 10:43:04 AM 49.1136 1.4834 147° Southeast 484 557 27,200 727 Descending FlightAware UK
Tue 10:43:22 AM 49.0744 1.5186 147° Southeast 544 626 29,000 667 Climbing FlightAware ADS-B
Tue 10:43:40 AM 49.0351 1.5543 147° Southeast 486 559 27,600 387 Descending FlightAware UK
Tue 10:43:53 AM 49.0081 1.5792 147° Southeast 552 635 29,200 400 Climbing FlightAware ADS-B
Tue 10:44:10 AM 48.9698 1.6141 147° Southeast 490 564 27,800 686 Descending FlightAware UK
Tue 10:44:28 AM 48.9298 1.6504 147° Southeast 558 642 29,600 1,000 Climbing FlightAware ADS-B
Tue 10:44:46 AM 48.8897 1.6866 147° Southeast 494 568 28,400 1,161 Descending FlightAware UK
Tue 10:44:59 AM 48.8630 1.7108 147° Southeast 557 641 30,200 1,400 Climbing FlightAware ADS-B
Tue 10:45:16 AM 48.8233 1.7466 147° Southeast 488 562 29,100 1,125 Descending FlightAware UK
Tue 10:45:31 AM 48.7921 1.7747 147° Southeast 555 639 30,800 2,933 Climbing FlightAware ADS-B
Tue 10:46:01 AM 48.7247 1.8351 149° Southeast 555 639 31,300 -1,067 Climbing FlightAware ADS-B
Tue 10:46:16 AM 48.6910 1.8649 149° Southeast 488 562 30,000 968 Descending FlightAware UK
Tue 10:46:32 AM 48.6575 1.8954 149° Southeast 552 635 31,800 3,064 Climbing FlightAware ADS-B
Tue 10:47:03 AM 48.5900 1.9557 149° Southeast 550 633 32,400 1,082 Climbing FlightAware ADS-B
Tue 10:47:33 AM 48.5241 2.0145 149° Southeast 548 631 32,900 600 Climbing FlightAware ADS-B
Tue 10:48:03 AM 48.4580 2.0733 149° Southeast 546 628 33,000 98 Climbing FlightAware ADS-B
Tue 10:48:34 AM 48.3912 2.1325 150° Southeast 545 627 33,000  Level FlightAware ADS-B
Tue 10:49:17 AM 48.3040 2.2090 150° Southeast 536 617 33,000  Level FlightAware ADS-B
Tue 10:49:39 AM 48.2500 2.2520 152° Southeast 544 626 33,000  Level FlightAware ADS-B
Tue 10:49:59 AM 48.2038 2.2839 155° Southeast 539 620 33,000  Level FlightAware ADS-B
Tue 10:50:36 AM 48.1195 2.3314 159° South 534 615 33,000  Level FlightAware ADS-B
Tue 10:51:12 AM 48.0340 2.3744 161° South 533 613 33,000  Level FlightAware ADS-B
Tue 10:52:02 AM 47.9300 2.4270 161° South 526 605 33,000  Level FlightAware ADS-B
Tue 10:52:42 AM 47.8330 2.4770 161° South 527 606 33,000  Level FlightAware ADS-B
Tue 10:53:27 AM 47.7320 2.5290 161° South 528 608 33,000  Level FlightAware ADS-B
Tue 10:53:31 AM 47.7106 2.5405 160° South 536 617 33,000  Level FlightAware ADS-B
Tue 10:54:04 AM 47.6335 2.5805 161° South 536 617 33,000  Level FlightAware ADS-B
Tue 10:54:36 AM 47.5577 2.6197 161° South 537 618 33,000  Level FlightAware ADS-B
Tue 10:55:13 AM 47.4710 2.6643 161° South 538 619 33,000  Level FlightAware ADS-B
Tue 10:56:27 AM 47.3140 2.7440 161° South 532 612 33,000  Level FlightAware ADS-B
Tue 10:57:07 AM 47.2200 2.7930 161° South 532 612 33,000  Level FlightAware ADS-B
Tue 10:57:52 AM 47.1140 2.8460 161° South 532 612 33,000  Level FlightAware ADS-B
Tue 10:58:32 AM 47.0220 2.8920 161° South 531 611 33,000  Level FlightAware ADS-B
Tue 10:59:17 AM 46.9120 2.9480 161° South 531 611 33,000  Level FlightAware ADS-B
Tue 10:59:57 AM 46.8180 2.9950 161° South 529 609 33,000  Level FlightAware ADS-B
Tue 11:00:42 AM 46.7130 3.0470 161° South 529 609 33,000  Level FlightAware ADS-B
Tue 11:01:22 AM 46.6170 3.0940 161° South 529 609 33,000  Level FlightAware ADS-B
Tue 11:02:07 AM 46.5170 3.1440 161° South 528 608 33,000  Level FlightAware ADS-B
Tue 11:02:52 AM 46.4080 3.1970 161° South 527 606 33,000  Level FlightAware ADS-B
Tue 11:03:32 AM 46.3060 3.2470 161° South 535 616 33,000  Level FlightAware ADS-B
Tue 11:04:17 AM 46.1960 3.3010 161° South 535 616 33,000  Level FlightAware ADS-B
Tue 11:04:57 AM 46.1050 3.3460 161° South 536 617 33,000  Level FlightAware ADS-B
Tue 11:05:42 AM 46.0070 3.4220 152° Southeast 547 629 33,000  Level FlightAware ADS-B
Tue 11:06:22 AM 45.9320 3.5160 139° Southeast 549 632 33,000  Level FlightAware ADS-B
Tue 11:07:07 AM 45.8470 3.6330 136° Southeast 548 631 33,000  Level FlightAware ADS-B
Tue 11:07:47 AM 45.7740 3.7310 137° Southeast 547 629 33,000  Level FlightAware ADS-B
Tue 11:08:27 AM 45.7020 3.8280 137° Southeast 546 628 33,000  Level FlightAware ADS-B
Tue 11:09:12 AM 45.6190 3.9390 137° Southeast 546 628 33,000  Level FlightAware ADS-B
Tue 11:09:52 AM 45.5440 4.0390 137° Southeast 546 628 33,000  Level FlightAware ADS-B
Tue 11:10:37 AM 45.4590 4.1510 137° Southeast 545 627 33,000  Level FlightAware ADS-B
Tue 11:11:17 AM 45.3850 4.2480 137° Southeast 545 627 33,000  Level FlightAware ADS-B
Tue 11:11:57 AM 45.3120 4.3480 136° Southeast 546 628 33,000  Level FlightAware ADS-B
Tue 11:12:42 AM 45.2370 4.4650 132° Southeast 549 632 33,000  Level FlightAware ADS-B
Tue 11:13:22 AM 45.1720 4.5730 130° Southeast 550 633 33,000  Level FlightAware ADS-B
Tue 11:14:02 AM 45.1070 4.6820 130° Southeast 551 634 33,000  Level FlightAware ADS-B
Tue 11:14:47 AM 45.0300 4.8120 130° Southeast 553 636 33,000  Level FlightAware ADS-B
Tue 11:15:27 AM 44.9650 4.9230 130° Southeast 554 638 33,000  Level FlightAware ADS-B
Tue 11:16:12 AM 44.8920 5.0460 130° Southeast 555 639 33,000  Level FlightAware ADS-B
Tue 11:16:52 AM 44.8290 5.1530 130° Southeast 556 640 33,000  Level FlightAware ADS-B
Tue 11:17:37 AM 44.7560 5.2740 130° Southeast 558 642 33,000  Level FlightAware ADS-B
Tue 11:18:17 AM 44.6860 5.3910 130° Southeast 558 642 33,000  Level FlightAware ADS-B
Tue 11:18:57 AM 44.6200 5.5020 130° Southeast 558 642 33,000  Level FlightAware ADS-B
Tue 11:19:42 AM 44.5450 5.6250 131° Southeast 557 641 33,000  Level FlightAware ADS-B
Tue 11:20:22 AM 44.4770 5.7370 130° Southeast 557 641 33,000  Level FlightAware ADS-B
Tue 11:20:52 AM 44.4270 5.8200 130° Southeast 556 640 33,000  Level FlightAware ADS-B
Tue 11:21:32 AM 44.3610 5.9290 130° Southeast 556 640 33,000  Level FlightAware ADS-B
Tue 11:22:17 AM 44.2860 6.0510 131° Southeast 557 641 33,000  Level FlightAware ADS-B
Tue 11:22:57 AM 44.2180 6.1600 131° Southeast 557 641 33,000  Level FlightAware ADS-B
Tue 11:23:42 AM 44.1410 6.2850 131° Southeast 557 641 33,000  Level FlightAware ADS-B
Tue 11:24:22 AM 44.0750 6.3910 131° Southeast 557 641 33,000  Level FlightAware ADS-B
Tue 11:25:02 AM 44.0080 6.4990 131° Southeast 557 641 33,000  Level FlightAware ADS-B
Tue 11:25:47 AM 43.9340 6.6170 131° Southeast 557 641 33,000  Level FlightAware ADS-B
Tue 11:26:27 AM 43.8650 6.7280 131° Southeast 557 641 33,000  Level FlightAware ADS-B
Tue 11:27:07 AM 43.8000 6.8300 131° Southeast 557 641 33,000  Level FlightAware ADS-B
Tue 11:27:52 AM 43.7200 6.9560 131° Southeast 559 643 33,000  Level FlightAware ADS-B
Tue 11:28:32 AM 43.6550 7.0690 128° Southeast 560 644 33,000  Level FlightAware ADS-B
Tue 11:29:12 AM 43.5990 7.1850 124° Southeast 560 644 33,000  Level FlightAware ADS-B
Tue 11:29:57 AM 43.5390 7.3250 121° Southeast 559 643 33,000  Level FlightAware ADS-B
Tue 11:30:37 AM 43.4870 7.4460 121° Southeast 559 643 33,000  Level FlightAware ADS-B
Tue 11:31:22 AM 43.4280 7.5820 121° Southeast 559 643 33,000  Level FlightAware ADS-B
Tue 11:32:07 AM 43.3670 7.7210 121° Southeast 560 644 33,000  Level FlightAware ADS-B
Tue 11:32:47 AM 43.3120 7.8450 121° Southeast 560 644 33,000  Level FlightAware ADS-B
Tue 11:33:27 AM 43.2590 7.9650 121° Southeast 559 643 33,000  Level FlightAware ADS-B
Tue 11:34:12 AM 43.2000 8.0990 121° Southeast 559 643 33,000  Level FlightAware ADS-B
Tue 11:34:52 AM 43.1450 8.2210 122° Southeast 558 642 33,000  Level FlightAware ADS-B
Tue 11:35:37 AM 43.0840 8.3580 121° Southeast 557 641 33,000  Level FlightAware ADS-B
Tue 11:36:17 AM 43.0330 8.4710 122° Southeast 558 642 33,000  Level FlightAware ADS-B
Tue 11:36:57 AM 42.9820 8.5840 122° Southeast 558 642 33,000  Level FlightAware ADS-B
Tue 11:37:42 AM 42.9220 8.7170 122° Southeast 558 642 33,000  Level FlightAware ADS-B
Tue 11:38:42 AM 42.8410 8.8960 122° Southeast 555 639 33,000  Level FlightAware ADS-B
Tue 11:39:32 AM 42.7720 9.0460 122° Southeast 553 636 33,000  Level FlightAware ADS-B
Tue 11:40:17 AM 42.7090 9.1830 122° Southeast 553 636 33,000  Level FlightAware ADS-B
Tue 11:40:57 AM 42.6560 9.2980 122° Southeast 554 638 33,000  Level FlightAware ADS-B
Tue 11:41:52 AM 42.5820 9.4630 121° Southeast 557 641 33,000  Level FlightAware ADS-B
Tue 11:42:37 AM 42.5390 9.6050 112° Southeast 554 638 33,000  Level FlightAware ADS-B
Tue 11:43:07 AM 42.5170 9.6860 110° East 553 636 33,000  Level FlightAware ADS-B
Tue 11:43:57 AM 42.4660 9.8780 110° East 549 632 33,000  Level FlightAware ADS-B
Tue 11:44:42 AM 42.4290 10.0200 109° East 549 632 33,000  Level FlightAware ADS-B
Tue 11:45:22 AM 42.3940 10.1500 110° East 548 631 33,000  Level FlightAware ADS-B
Tue 11:46:02 AM 42.3580 10.2830 110° East 549 632 33,000  Level FlightAware ADS-B
Tue 11:46:47 AM 42.3030 10.4160 119° Southeast 552 635 33,000  Level FlightAware ADS-B
Tue 11:47:27 AM 42.2320 10.5200 133° Southeast 558 642 33,000  Level FlightAware ADS-B
Tue 11:48:12 AM 42.1510 10.6310 135° Southeast 553 636 33,000  Level FlightAware ADS-B
Tue 11:48:52 AM 42.0770 10.7290 135° Southeast 553 636 33,000  Level FlightAware ADS-B
Tue 11:49:32 AM 42.0050 10.8270 135° Southeast 553 636 33,000  Level FlightAware ADS-B
Tue 11:50:17 AM 41.9230 10.9370 135° Southeast 553 636 33,000  Level FlightAware ADS-B
Tue 11:50:57 AM 41.8500 11.0350 135° Southeast 552 635 33,000  Level FlightAware ADS-B
Tue 11:51:42 AM 41.7680 11.1450 135° Southeast 553 636 33,000  Level FlightAware ADS-B
Tue 11:52:22 AM 41.6950 11.2430 135° Southeast 553 636 33,000  Level FlightAware ADS-B
Tue 11:53:07 AM 41.6130 11.3530 135° Southeast 553 636 33,000  Level FlightAware ADS-B
Tue 11:53:47 AM 41.5400 11.4490 135° Southeast 553 636 33,000  Level FlightAware ADS-B
Tue 11:54:27 AM 41.4660 11.5460 135° Southeast 553 636 33,000  Level FlightAware ADS-B
Tue 11:55:12 AM 41.3840 11.6550 135° Southeast 554 638 33,000  Level FlightAware ADS-B
Tue 11:55:52 AM 41.3100 11.7520 135° Southeast 560 644 33,000  Level FlightAware ADS-B
Tue 11:56:32 AM 41.2380 11.8460 136° Southeast 561 646 33,000  Level FlightAware ADS-B
Tue 11:57:17 AM 41.1630 11.9430 136° Southeast 560 644 33,000  Level FlightAware ADS-B
Tue 11:57:57 AM 41.0970 12.0300 135° Southeast 560 644 33,000  Level FlightAware ADS-B
Tue 11:58:37 AM 41.0200 12.1300 136° Southeast 560 644 33,000  Level FlightAware ADS-B
Tue 11:59:22 AM 40.9360 12.2380 136° Southeast 561 646 33,000  Level FlightAware ADS-B
Tue 12:00:07 PM 40.8500 12.3480 136° Southeast 561 646 33,000  Level FlightAware ADS-B
Tue 12:01:02 PM 40.7470 12.4800 136° Southeast 562 647 33,000  Level FlightAware ADS-B
Tue 12:01:32 PM 40.6970 12.5440 136° Southeast 562 647 33,000  Level FlightAware ADS-B
Tue 12:02:22 PM 40.5920 12.6770 136° Southeast 562 647 33,000  Level FlightAware ADS-B
Tue 12:03:07 PM 40.5280 12.7610 135° Southeast 562 647 33,000  Level FlightAware ADS-B
Tue 12:03:42 PM 40.4480 12.8600 137° Southeast 562 647 33,000  Level FlightAware ADS-B
Tue 12:04:27 PM 40.3690 12.9580 137° Southeast 560 644 33,000  Level FlightAware ADS-B
Tue 12:05:22 PM 40.2640 13.0900 136° Southeast 560 644 33,000  Level FlightAware ADS-B
Tue 12:06:22 PM 40.1500 13.2330 136° Southeast 560 644 33,000  Level FlightAware ADS-B
Tue 12:07:07 PM 40.0630 13.3410 136° Southeast 558 642 33,000  Level FlightAware ADS-B
Tue 12:07:47 PM 40.0000 13.4180 137° Southeast 557 641 33,000  Level FlightAware ADS-B
Tue 12:08:57 PM 39.8480 13.6070 136° Southeast 33,000  Level FlightAware ADS-B
Tue 12:09:42 PM 39.7670 13.7060 137° Southeast 552 635 33,000  Level FlightAware ADS-B
Tue 12:10:32 PM 39.6700 13.8250 137° Southeast 552 635 33,000  Level FlightAware ADS-B
Tue 12:11:12 PM 39.5920 13.9190 137° Southeast 551 634 33,000  Level FlightAware ADS-B
Tue 12:11:57 PM 39.5160 14.0110 137° Southeast 550 633 33,000  Level FlightAware ADS-B
Tue 12:12:42 PM 39.4400 14.1040 137° Southeast 551 634 33,000  Level FlightAware ADS-B
Tue 12:13:22 PM 39.3580 14.2010 138° Southeast 549 632 33,000  Level FlightAware ADS-B
Tue 12:14:07 PM 39.2720 14.3040 137° Southeast 548 631 33,000  Level FlightAware ADS-B
Tue 12:14:47 PM 39.2080 14.3790 138° Southeast 547 629 33,000  Level FlightAware ADS-B
Tue 12:15:27 PM 39.1200 14.4840 137° Southeast 545 627 33,000  Level FlightAware ADS-B
Tue 12:16:12 PM 39.0420 14.5760 137° Southeast 545 627 33,000  Level FlightAware ADS-B
Tue 12:16:52 PM 38.9680 14.6620 138° Southeast 545 627 33,000  Level FlightAware ADS-B
Tue 12:17:42 PM 38.8750 14.7720 137° Southeast 544 626 33,000  Level FlightAware ADS-B
Tue 12:18:32 PM 38.7770 14.8860 138° Southeast 542 624 33,000  Level FlightAware ADS-B
Tue 12:19:12 PM 38.7040 14.9710 138° Southeast 540 621 33,000  Level FlightAware ADS-B
Tue 12:19:52 PM 38.6340 15.0520 138° Southeast 538 619 33,000  Level FlightAware ADS-B
Tue 12:20:37 PM 38.5500 15.1500 138° Southeast 530 610 33,000  Level FlightAware ADS-B
Tue 12:21:17 PM 38.4750 15.2350 138° Southeast 529 609 33,000  Level FlightAware ADS-B
Tue 12:21:57 PM 38.4030 15.3180 138° Southeast 525 604 33,000  Level FlightAware ADS-B
Tue 12:22:42 PM 38.3200 15.4140 138° Southeast 523 602 33,000  Level FlightAware ADS-B
Tue 12:23:22 PM 38.2490 15.4940 138° Southeast 524 603 33,000  Level FlightAware ADS-B
Tue 12:24:07 PM 38.1660 15.5890 138° Southeast 519 597 33,000  Level FlightAware ADS-B
Tue 12:24:47 PM 38.0960 15.6680 138° Southeast 517 595 33,000  Level FlightAware ADS-B
Tue 12:25:27 PM 38.0250 15.7490 138° Southeast 515 593 33,000  Level FlightAware ADS-B
Tue 12:26:12 PM 37.9440 15.8410 138° Southeast 517 595 33,000  Level FlightAware ADS-B
Tue 12:26:52 PM 37.8730 15.9200 139° Southeast 516 594 33,000  Level FlightAware ADS-B
Tue 12:27:37 PM 37.7920 16.0120 138° Southeast 517 595 33,000  Level FlightAware ADS-B
Tue 12:28:17 PM 37.7210 16.0910 139° Southeast 514 592 33,000  Level FlightAware ADS-B
Tue 12:29:02 PM 37.6400 16.1810 139° Southeast 515 593 33,000  Level FlightAware ADS-B
Tue 12:29:42 PM 37.5690 16.2600 139° Southeast 514 592 33,000  Level FlightAware ADS-B
Tue 12:30:22 PM 37.4990 16.3390 138° Southeast 513 590 33,000  Level FlightAware ADS-B
Tue 12:31:07 PM 37.4180 16.4280 139° Southeast 513 590 33,000  Level FlightAware ADS-B
Tue 12:31:47 PM 37.3480 16.5060 138° Southeast 511 588 33,000  Level FlightAware ADS-B
Tue 12:32:32 PM 37.2650 16.5970 139° Southeast 510 587 33,000  Level FlightAware ADS-B
Tue 12:33:12 PM 37.1970 16.6710 139° Southeast 502 578 33,000  Level FlightAware ADS-B
Tue 12:33:52 PM 37.1230 16.7520 139° Southeast 500 575 33,000  Level FlightAware ADS-B
Tue 12:34:37 PM 37.0440 16.8370 139° Southeast 497 572 33,000  Level FlightAware ADS-B
Tue 12:35:17 PM 36.9710 16.9070 143° Southeast 496 571 33,000  Level FlightAware ADS-B
Tue 12:35:57 PM 36.8940 16.9740 145° Southeast 495 570 33,000  Level FlightAware ADS-B
Tue 12:36:42 PM 36.8060 17.0470 146° Southeast 502 578 33,000  Level FlightAware ADS-B
Tue 12:37:22 PM 36.7270 17.1130 146° Southeast 502 578 33,000  Level FlightAware ADS-B
Tue 12:38:07 PM 36.6410 17.1840 146° Southeast 501 577 33,000  Level FlightAware ADS-B
Tue 12:38:37 PM 36.5840 17.2310 146° Southeast 499 574 33,000  Level FlightAware ADS-B
Tue 12:39:27 PM 36.4870 17.3110 146° Southeast 496 571 33,000  Level FlightAware ADS-B
Tue 12:40:12 PM 36.4080 17.3760 146° Southeast 494 568 33,000  Level FlightAware ADS-B
Tue 12:40:52 PM 36.3340 17.4370 146° Southeast 494 568 33,000  Level FlightAware ADS-B
Tue 12:41:32 PM 36.2550 17.5020 146° Southeast 493 567 33,000  Level FlightAware ADS-B
Tue 12:42:17 PM 36.1700 17.5720 146° Southeast 491 565 33,000  Level FlightAware ADS-B
Tue 12:42:57 PM 36.0950 17.6330 147° Southeast 489 563 33,000  Level FlightAware ADS-B
Tue 12:43:42 PM 36.0100 17.7030 146° Southeast 488 562 33,000  Level FlightAware ADS-B
Tue 12:44:22 PM 35.9340 17.7650 147° Southeast 487 560 33,000  Level FlightAware ADS-B
Tue 12:45:02 PM 35.8530 17.8310 147° Southeast 486 559 33,000  Level FlightAware ADS-B
Tue 12:45:47 PM 35.7720 17.8970 147° Southeast 485 558 33,000  Level FlightAware ADS-B
Tue 12:46:27 PM 35.7000 17.9550 147° Southeast 482 555 33,000  Level FlightAware ADS-B
Tue 12:47:12 PM 35.6170 18.0220 147° Southeast 480 552 33,000  Level FlightAware ADS-B
Tue 12:47:52 PM 35.5410 18.0830 147° Southeast 480 552 33,000  Level FlightAware ADS-B
Tue 12:48:32 PM 35.4680 18.1420 147° Southeast 478 550 33,000  Level FlightAware ADS-B
Tue 12:49:17 PM 35.3850 18.2080 147° Southeast 478 550 33,000  Level FlightAware ADS-B
Tue 12:49:57 PM 35.3130 18.2660 147° Southeast 477 549 33,000  Level FlightAware ADS-B
Tue 12:50:42 PM 35.2230 18.3380 147° Southeast 474 545 33,000  Level FlightAware ADS-B
Tue 12:51:22 PM 35.1600 18.3870 148° Southeast 474 545 33,000  Level FlightAware ADS-B
Tue 12:51:57 PM 35.1000 18.4370 146° Southeast 474 545 33,000  Level FlightAware ADS-B
Tue 12:52:47 PM 35.0230 18.5010 146° Southeast 474 545 33,000  Level FlightAware ADS-B
Tue 12:53:27 PM 34.9610 18.5520 146° Southeast 474 545 33,000  Level FlightAware ADS-B
Tue 12:54:12 PM 34.8990 18.6030 146° Southeast 474 545 33,000  Level FlightAware ADS-B
Tue 12:54:32 PM 35.1600 18.3870 326° Northwest 33,000  Level FlightAware ADS-B
Tue 12:55:37 PM 34.6930 18.7560 147° Southeast 453 521 33,000  Level FlightAware ADS-B
Tue 12:56:22 PM 34.6230 18.8110 147° Southeast 449 517 33,000  Level FlightAware ADS-B
Tue 12:56:57 PM 34.5650 18.8570 147° Southeast 449 517 33,000  Level FlightAware ADS-B
Tue 12:57:37 PM 34.5060 18.9040 147° Southeast 449 517 33,000  Level FlightAware ADS-B
Tue 12:58:27 PM 34.4320 18.9620 147° Southeast 449 517 33,000  Level FlightAware ADS-B
Tue 12:59:02 PM 34.3310 18.9940 165° South 33,000  Level FlightAware ADS-B
Tue 12:59:22 PM 34.2900 19.0080 164° South 423 487 33,000  Level FlightAware ADS-B
Tue 12:59:52 PM 34.2340 19.0270 164° South 431 496 33,000  Level FlightAware ADS-B
Tue 01:01:27 PM 34.0510 19.0890 164° South 434 499 33,000  Level FlightAware ADS-B
Tue 01:02:37 PM 33.9150 19.1350 164° South 433 498 33,000  Level FlightAware ADS-B
Tue 01:03:47 PM 33.7810 19.1790 165° South 437 503 33,000  Level FlightAware ADS-B
Tue 01:04:57 PM 33.6420 19.2250 165° South 432 497 33,000  Level FlightAware ADS-B
Tue 01:06:07 PM 33.5050 19.2700 165° South 433 498 33,000  Level FlightAware ADS-B
Tue 01:07:17 PM 33.3680 19.3150 165° South 433 498 33,000  Level FlightAware ADS-B
Tue 01:08:37 PM 33.2080 19.3680 165° South 437 503 33,000  Level FlightAware ADS-B
Tue 01:09:22 PM 33.1170 19.3970 165° South 447 514 33,000  Level FlightAware ADS-B
Tue 01:10:07 PM 33.0260 19.4270 165° South 437 503 33,000  Level FlightAware ADS-B
Tue 01:10:47 PM 32.9480 19.4520 165° South 434 499 33,000  Level FlightAware ADS-B
Tue 01:11:27 PM 32.8700 19.4770 165° South 432 497 33,000  Level FlightAware ADS-B
Tue 01:12:12 PM 32.7800 19.5060 165° South 431 496 33,000  Level FlightAware ADS-B
Tue 01:12:52 PM 32.7020 19.5310 165° South 431 496 33,000  Level FlightAware ADS-B
Tue 01:13:37 PM 32.6120 19.5600 165° South 432 497 33,000  Level FlightAware ADS-B
Tue 01:14:17 PM 32.5350 19.5850 165° South 430 495 33,000  Level FlightAware ADS-B
Tue 01:14:57 PM 32.4560 19.6100 165° South 434 499 33,000  Level FlightAware ADS-B
Tue 01:15:42 PM 32.3690 19.6380 165° South 431 496 33,000  Level FlightAware ADS-B
Tue 01:16:22 PM 32.2950 19.6620 165° South 419 482 33,000  Level FlightAware ADS-B
Tue 01:17:07 PM 32.2070 19.6900 165° South 417 480 33,000  Level FlightAware ADS-B
Tue 01:17:47 PM 32.1330 19.7130 165° South 416 479 33,000  Level FlightAware ADS-B
Tue 01:18:32 PM 32.0460 19.7410 165° South 413 475 33,000  Level FlightAware ADS-B
Tue 01:19:12 PM 31.9740 19.7640 165° South 420 483 33,000  Level FlightAware ADS-B
Tue 01:19:52 PM 31.8950 19.7890 165° South 413 475 33,000  Level FlightAware ADS-B
Tue 01:20:37 PM 31.8110 19.8150 165° South 416 479 33,000  Level FlightAware ADS-B
Tue 01:21:17 PM 31.7360 19.8390 165° South 417 480 33,000  Level FlightAware ADS-B
Tue 01:21:57 PM 31.6590 19.8630 165° South 419 482 33,000  Level FlightAware ADS-B
Tue 01:22:42 PM 31.5740 19.8900 165° South 420 483 33,000  Level FlightAware ADS-B
Tue 01:23:22 PM 31.4960 19.9150 165° South 429 494 33,000  Level FlightAware ADS-B
Tue 01:24:07 PM 31.4100 19.9420 165° South 429 494 33,000  Level FlightAware ADS-B
Tue 01:24:47 PM 31.3310 19.9660 165° South 430 495 33,000  Level FlightAware ADS-B
Tue 01:25:32 PM 31.2430 19.9940 165° South 432 497 33,000  Level FlightAware ADS-B
Tue 01:26:12 PM 31.1660 20.0170 166° South 435 501 33,000  Level FlightAware ADS-B
Tue 01:26:52 PM 31.0870 20.0420 165° South 431 496 33,000  Level FlightAware ADS-B
Tue 01:27:37 PM 30.9980 20.0700 165° South 435 501 33,000  Level FlightAware ADS-B
Tue 01:28:17 PM 30.9190 20.0940 165° South 436 502 33,000  Level FlightAware ADS-B
Tue 01:29:02 PM 30.8300 20.1220 165° South 447 514 33,000  Level FlightAware ADS-B
Tue 01:29:42 PM 30.7500 20.1460 166° South 449 517 33,000  Level FlightAware ADS-B
Tue 01:30:22 PM 30.6680 20.1720 165° South 451 519 33,000  Level FlightAware ADS-B
Tue 01:31:07 PM 30.5780 20.2000 165° South 452 520 33,000  Level FlightAware ADS-B
Tue 01:31:47 PM 30.4960 20.2250 165° South 452 520 33,000  Level FlightAware ADS-B
Tue 01:32:32 PM 30.4060 20.2520 165° South 452 520 33,000  Level FlightAware ADS-B
Tue 01:33:12 PM 30.3260 20.2770 165° South 452 520 33,000  Level FlightAware ADS-B
Tue 01:33:52 PM 30.2450 20.3010 166° South 451 519 33,000  Level FlightAware ADS-B
Tue 01:34:37 PM 30.1530 20.3290 165° South 452 520 33,000  Level FlightAware ADS-B
Tue 01:35:17 PM 30.0710 20.3540 165° South 453 521 33,000  Level FlightAware ADS-B
Tue 01:36:02 PM 29.9810 20.3820 165° South 453 521 33,000  Level FlightAware ADS-B
Tue 01:36:42 PM 29.8980 20.4070 165° South 451 519 33,000  Level FlightAware ADS-B
Tue 01:37:22 PM 29.8180 20.4310 165° South 453 521 33,000  Level FlightAware ADS-B
Tue 01:38:07 PM 29.7270 20.4590 165° South 446 513 33,000  Level FlightAware ADS-B
Tue 01:38:47 PM 29.6460 20.4830 166° South 452 520 33,000  Level FlightAware ADS-B
Tue 01:39:27 PM 29.5660 20.5070 165° South 451 519 33,000  Level FlightAware ADS-B
Tue 01:40:07 PM 29.4840 20.5320 165° South 450 518 33,000  Level FlightAware ADS-B
Tue 01:40:52 PM 29.3930 20.5590 166° South 450 518 33,000  Level FlightAware ADS-B
Tue 01:41:32 PM 29.3200 20.5810 165° South 450 518 33,000  Level FlightAware ADS-B
Tue 01:42:17 PM 29.2400 20.6050 165° South 450 518 33,000  Level FlightAware ADS-B
Tue 01:42:57 PM 29.1720 20.6260 165° South 450 518 33,000  Level FlightAware ADS-B
Tue 01:43:37 PM 29.1030 20.6470 165° South 450 518 33,000  Level FlightAware ADS-B
Tue 01:44:17 PM 29.0350 20.6680 165° South 450 518 33,000  Level FlightAware ADS-B
Tue 01:45:07 PM 28.9490 20.6950 165° South 450 518 33,000  Level FlightAware ADS-B
Tue 01:45:47 PM 28.8810 20.7150 166° South 450 518 33,000  Level FlightAware ADS-B
Tue 01:46:27 PM 28.8130 20.7360 165° South 450 518 33,000  Level FlightAware ADS-B
Tue 01:47:07 PM 28.7440 20.7570 165° South 450 518 33,000  Level FlightAware ADS-B
Tue 01:47:47 PM 28.6760 20.7780 165° South 450 518 33,000  Level FlightAware ADS-B
Tue 01:48:37 PM 28.5900 20.8040 165° South 450 518 33,000  Level FlightAware ADS-B
Tue 01:49:17 PM 28.5220 20.8250 165° South 450 518 33,000  Level FlightAware ADS-B
Tue 01:49:57 PM 28.4540 20.8460 165° South 450 518 33,000  Level FlightAware ADS-B
Tue 01:50:37 PM 28.3850 20.8670 165° South 450 518 33,000  Level FlightAware ADS-B
Tue 01:51:17 PM 28.3170 20.8880 165° South 450 518 33,000 18 Level FlightAware ADS-B
Tue 01:53:00 PM 28.1504 21.0478 140° Southeast  Level Estimated
Tue 01:54:00 PM 28.0533 21.1407 140° Southeast  Level Estimated
Tue 01:55:00 PM 27.9562 21.2335 140° Southeast  Level Estimated
Tue 01:56:00 PM 27.8589 21.3260 140° Southeast  Level Estimated
Tue 01:57:00 PM 27.7616 21.4184 140° Southeast  Level Estimated
Tue 01:58:00 PM 27.6643 21.5106 140° Southeast  Level Estimated
Tue 01:59:00 PM 27.5669 21.6027 140° Southeast  Level Estimated
Tue 02:00:00 PM 27.4694 21.6946 140° Southeast  Level Estimated
Tue 02:01:00 PM 27.3718 21.7863 140° Southeast  Level Estimated
Tue 02:02:00 PM 27.2742 21.8779 140° Southeast  Level Estimated
Tue 02:03:00 PM 27.1766 21.9693 140° Southeast  Level Estimated
Tue 02:04:00 PM 27.0788 22.0605 140° Southeast  Level Estimated
Tue 02:05:00 PM 26.9811 22.1516 140° Southeast  Level Estimated
Tue 02:06:00 PM 26.8832 22.2426 140° Southeast  Level Estimated
Tue 02:07:00 PM 26.7854 22.3333 140° Southeast  Level Estimated
Tue 02:08:00 PM 26.6874 22.4240 140° Southeast  Level Estimated
Tue 02:09:00 PM 26.5894 22.5144 140° Southeast  Level Estimated
Tue 02:10:00 PM 26.4913 22.6047 140° Southeast  Level Estimated
Tue 02:11:00 PM 26.3932 22.6949 141° Southeast  Level Estimated
Tue 02:12:00 PM 26.2950 22.7849 141° Southeast  Level Estimated
Tue 02:13:00 PM 26.1968 22.8747 141° Southeast  Level Estimated
Tue 02:14:00 PM 26.0985 22.9644 141° Southeast  Level Estimated
Tue 02:15:00 PM 26.0002 23.0540 141° Southeast  Level Estimated
Tue 02:16:00 PM 25.9018 23.1434 141° Southeast  Level Estimated
Tue 02:17:00 PM 25.8033 23.2326 141° Southeast  Level Estimated
Tue 02:18:00 PM 25.7048 23.3217 141° Southeast  Level Estimated
Tue 02:19:00 PM 25.6062 23.4107 141° Southeast  Level Estimated
Tue 02:20:00 PM 25.5076 23.4995 141° Southeast  Level Estimated
Tue 02:21:00 PM 25.4089 23.5882 141° Southeast  Level Estimated
Tue 02:22:00 PM 25.3102 23.6767 141° Southeast  Level Estimated
Tue 02:23:00 PM 25.2114 23.7651 141° Southeast  Level Estimated
Tue 02:24:00 PM 25.1126 23.8533 141° Southeast  Level Estimated
Tue 02:25:00 PM 25.0137 23.9414 141° Southeast  Level Estimated
Tue 02:26:00 PM 24.9148 24.0293 141° Southeast  Level Estimated
Tue 02:27:00 PM 24.8158 24.1171 141° Southeast  Level Estimated
Tue 02:28:00 PM 24.7168 24.2048 141° Southeast  Level Estimated
Tue 02:29:00 PM 24.6177 24.2923 141° Southeast  Level Estimated
Tue 02:30:00 PM 24.5185 24.3797 141° Southeast  Level Estimated
Tue 02:31:00 PM 24.4193 24.4669 141° Southeast  Level Estimated
Tue 02:32:00 PM 24.3201 24.5540 141° Southeast  Level Estimated
Tue 02:33:00 PM 24.2208 24.6410 141° Southeast  Level Estimated
Tue 02:34:00 PM 24.1215 24.7278 141° Southeast  Level Estimated
Tue 02:35:00 PM 24.0221 24.8145 141° Southeast  Level Estimated
Tue 02:36:00 PM 23.9227 24.9011 141° Southeast  Level Estimated
Tue 02:37:00 PM 23.8232 24.9876 142° Southeast  Level Estimated
Tue 02:38:00 PM 23.7236 25.0739 142° Southeast  Level Estimated
Tue 02:39:00 PM 23.6241 25.1600 142° Southeast  Level Estimated
Tue 02:40:00 PM 23.5244 25.2461 142° Southeast  Level Estimated
Tue 02:41:00 PM 23.4248 25.3320 142° Southeast  Level Estimated
Tue 02:42:00 PM 23.3251 25.4177 142° Southeast  Level Estimated
Tue 02:43:00 PM 23.2253 25.5034 142° Southeast  Level Estimated
Tue 02:44:00 PM 23.1255 25.5889 142° Southeast  Level Estimated
Tue 02:45:00 PM 23.0256 25.6743 142° Southeast  Level Estimated
Tue 02:46:00 PM 22.9257 25.7596 142° Southeast  Level Estimated
Tue 02:47:00 PM 22.8258 25.8447 142° Southeast  Level Estimated
Tue 02:48:00 PM 22.7258 25.9298 142° Southeast  Level Estimated
Tue 02:49:00 PM 22.6257 26.0147 142° Southeast  Level Estimated
Tue 02:50:00 PM 22.5256 26.0994 142° Southeast  Level Estimated
Tue 02:51:00 PM 22.4255 26.1841 142° Southeast  Level Estimated
Tue 02:52:00 PM 22.3253 26.2686 142° Southeast  Level Estimated
Tue 02:53:00 PM 22.2251 26.3530 142° Southeast  Level Estimated
Tue 02:54:00 PM 22.1249 26.4373 142° Southeast  Level Estimated
Tue 02:55:00 PM 22.0246 26.5215 142° Southeast  Level Estimated
Tue 02:56:00 PM 21.9242 26.6055 142° Southeast  Level Estimated
Tue 02:57:00 PM 21.8238 26.6895 142° Southeast  Level Estimated
Tue 02:58:00 PM 21.7234 26.7733 142° Southeast  Level Estimated
Tue 02:59:00 PM 21.6229 26.8570 142° Southeast  Level Estimated
Tue 03:00:00 PM 21.5224 26.9405 142° Southeast  Level Estimated
Tue 03:01:00 PM 21.4218 27.0240 142° Southeast  Level Estimated
Tue 03:02:00 PM 21.3212 27.1073 142° Southeast  Level Estimated
Tue 03:03:00 PM 21.2206 27.1906 142° Southeast  Level Estimated
Tue 03:04:00 PM 21.1199 27.2737 142° Southeast  Level Estimated
Tue 03:05:00 PM 21.0192 27.3567 142° Southeast  Level Estimated
Tue 03:06:00 PM 20.9184 27.4396 142° Southeast  Level Estimated
Tue 03:07:00 PM 20.8176 27.5224 142° Southeast  Level Estimated
Tue 03:08:00 PM 20.7168 27.6050 143° Southeast  Level Estimated
Tue 03:09:00 PM 20.6159 27.6876 143° Southeast  Level Estimated
Tue 03:10:00 PM 20.5150 27.7701 143° Southeast  Level Estimated
Tue 03:11:00 PM 20.4140 27.8524 143° Southeast  Level Estimated
Tue 03:12:00 PM 20.3130 27.9346 143° Southeast  Level Estimated
Tue 03:13:00 PM 20.2120 28.0168 143° Southeast  Level Estimated
Tue 03:14:00 PM 20.1109 28.0988 143° Southeast  Level Estimated
Tue 03:15:00 PM 20.0098 28.1807 143° Southeast  Level Estimated
Tue 03:16:00 PM 19.9087 28.2625 143° Southeast  Level Estimated
Tue 03:17:00 PM 19.8075 28.3442 143° Southeast  Level Estimated
Tue 03:18:00 PM 19.7063 28.4258 143° Southeast  Level Estimated
Tue 03:19:00 PM 19.6050 28.5073 143° Southeast  Level Estimated
Tue 03:20:00 PM 19.5037 28.5887 143° Southeast  Level Estimated
Tue 03:21:00 PM 19.4024 28.6700 143° Southeast  Level Estimated
Tue 03:22:00 PM 19.3010 28.7512 143° Southeast  Level Estimated
Tue 03:23:00 PM 19.1996 28.8323 143° Southeast  Level Estimated
Tue 03:24:00 PM 19.0982 28.9133 143° Southeast  Level Estimated
Tue 03:25:00 PM 18.9967 28.9942 143° Southeast  Level Estimated
Tue 03:26:00 PM 18.8952 29.0750 143° Southeast  Level Estimated
Tue 03:27:00 PM 18.7936 29.1557 143° Southeast  Level Estimated
Tue 03:28:00 PM 18.6921 29.2363 143° Southeast  Level Estimated
Tue 03:29:00 PM 18.5904 29.3168 143° Southeast  Level Estimated
Tue 03:30:00 PM 18.4888 29.3972 143° Southeast  Level Estimated
Tue 03:31:00 PM 18.3871 29.4775 143° Southeast  Level Estimated
Tue 03:32:00 PM 18.2854 29.5577 143° Southeast  Level Estimated
Tue 03:33:00 PM 18.1836 29.6378 143° Southeast  Level Estimated
Tue 03:34:00 PM 18.0819 29.7179 143° Southeast  Level Estimated
Tue 03:35:00 PM 17.9800 29.7978 143° Southeast  Level Estimated
Tue 03:36:00 PM 17.8782 29.8777 143° Southeast  Level Estimated
Tue 03:37:00 PM 17.7763 29.9574 143° Southeast  Level Estimated
Tue 03:38:00 PM 17.6744 30.0371 143° Southeast  Level Estimated
Tue 03:39:00 PM 17.5725 30.1166 143° Southeast  Level Estimated
Tue 03:40:00 PM 17.4705 30.1961 143° Southeast  Level Estimated
Tue 03:41:00 PM 17.3685 30.2755 143° Southeast  Level Estimated
Tue 03:42:00 PM 17.2664 30.3548 143° Southeast  Level Estimated
Tue 03:43:00 PM 17.1644 30.4340 143° Southeast  Level Estimated
Tue 03:44:00 PM 17.0623 30.5132 143° Southeast  Level Estimated
Tue 03:45:00 PM 16.9601 30.5922 143° Southeast  Level Estimated
Tue 03:46:00 PM 16.8580 30.6712 144° Southeast  Level Estimated
Tue 03:47:00 PM 16.7558 30.7500 144° Southeast  Level Estimated
Tue 03:48:00 PM 16.6535 30.8288 144° Southeast  Level Estimated
Tue 03:49:00 PM 16.5513 30.9075 144° Southeast  Level Estimated
Tue 03:50:00 PM 16.4490 30.9862 144° Southeast  Level Estimated
Tue 03:51:00 PM 16.3467 31.0647 144° Southeast  Level Estimated
Tue 03:52:00 PM 16.2444 31.1432 144° Southeast  Level Estimated
Tue 03:53:00 PM 16.1420 31.2215 144° Southeast  Level Estimated
Tue 03:54:00 PM 16.0396 31.2998 144° Southeast  Level Estimated
Tue 03:55:00 PM 15.9372 31.3780 144° Southeast  Level Estimated
Tue 03:56:00 PM 15.8347 31.4562 144° Southeast  Level Estimated
Tue 03:57:00 PM 15.7322 31.5342 144° Southeast  Level Estimated
Tue 03:58:00 PM 15.6297 31.6122 144° Southeast  Level Estimated
Tue 03:59:00 PM 15.5272 31.6901 144° Southeast  Level Estimated
Tue 04:00:00 PM 15.4246 31.7679 144° Southeast  Level Estimated
Tue 04:01:00 PM 15.3220 31.8456 144° Southeast  Level Estimated
Tue 04:02:00 PM 15.2194 31.9233 144° Southeast  Level Estimated
Tue 04:03:00 PM 15.1168 32.0009 144° Southeast  Level Estimated
Tue 04:04:00 PM 15.0141 32.0784 144° Southeast  Level Estimated
Tue 04:05:00 PM 14.9114 32.1559 144° Southeast  Level Estimated
Tue 04:06:00 PM 14.8087 32.2332 144° Southeast  Level Estimated
Tue 04:07:00 PM 14.7059 32.3105 144° Southeast  Level Estimated
Tue 04:08:00 PM 14.6032 32.3877 144° Southeast  Level Estimated
Tue 04:09:00 PM 14.5003 32.4649 144° Southeast  Level Estimated
Tue 04:10:00 PM 14.3975 32.5420 144° Southeast  Level Estimated
Tue 04:11:00 PM 14.2947 32.6190 144° Southeast  Level Estimated
Tue 04:12:00 PM 14.1918 32.6959 144° Southeast  Level Estimated
Tue 04:13:00 PM 14.0889 32.7728 144° Southeast  Level Estimated
Tue 04:14:00 PM 13.9860 32.8496 144° Southeast  Level Estimated
Tue 04:15:00 PM 13.8830 32.9263 144° Southeast  Level Estimated
Tue 04:16:00 PM 13.7801 33.0030 144° Southeast  Level Estimated
Tue 04:17:00 PM 13.6770 33.0796 144° Southeast  Level Estimated
Tue 04:18:00 PM 13.5740 33.1561 144° Southeast  Level Estimated
Tue 04:19:00 PM 13.4710 33.2326 144° Southeast  Level Estimated
Tue 04:20:00 PM 13.3679 33.3089 144° Southeast  Level Estimated
Tue 04:21:00 PM 13.2648 33.3853 144° Southeast  Level Estimated
Tue 04:22:00 PM 13.1617 33.4615 144° Southeast  Level Estimated
Tue 04:23:00 PM 13.0586 33.5377 144° Southeast  Level Estimated
Tue 04:24:00 PM 12.9554 33.6139 144° Southeast  Level Estimated
Tue 04:25:00 PM 12.8523 33.6899 144° Southeast  Level Estimated
Tue 04:26:00 PM 12.7491 33.7660 144° Southeast  Level Estimated
Tue 04:27:00 PM 12.6458 33.8419 144° Southeast  Level Estimated
Tue 04:28:00 PM 12.5426 33.9178 144° Southeast  Level Estimated
Tue 04:29:00 PM 12.4393 33.9936 144° Southeast  Level Estimated
Tue 04:30:00 PM 12.3360 34.0694 144° Southeast  Level Estimated
Tue 04:31:00 PM 12.2327 34.1451 144° Southeast  Level Estimated
Tue 04:32:00 PM 12.1294 34.2208 144° Southeast  Level Estimated
Tue 04:33:00 PM 12.0260 34.2963 144° Southeast  Level Estimated
Tue 04:34:00 PM 11.9227 34.3719 144° Southeast  Level Estimated
Tue 04:35:00 PM 11.8193 34.4473 144° Southeast  Level Estimated
Tue 04:36:00 PM 11.7159 34.5228 144° Southeast  Level Estimated
Tue 04:37:00 PM 11.6124 34.5981 144° Southeast  Level Estimated
Tue 04:38:00 PM 11.5090 34.6734 144° Southeast  Level Estimated
Tue 04:39:00 PM 11.4055 34.7487 145° Southeast  Level Estimated
Tue 04:40:00 PM 11.3020 34.8239 145° Southeast  Level Estimated
Tue 04:41:00 PM 11.1985 34.8990 145° Southeast  Level Estimated
Tue 04:42:00 PM 11.0950 34.9741 145° Southeast  Level Estimated
Tue 04:43:00 PM 10.9915 35.0491 145° Southeast  Level Estimated
Tue 04:44:00 PM 10.8879 35.1241 145° Southeast  Level Estimated
Tue 04:45:00 PM 10.7843 35.1990 145° Southeast  Level Estimated
Tue 04:46:00 PM 10.6807 35.2739 145° Southeast  Level Estimated
Tue 04:47:00 PM 10.5771 35.3487 145° Southeast  Level Estimated
Tue 04:48:00 PM 10.4735 35.4235 145° Southeast  Level Estimated
Tue 04:49:00 PM 10.3698 35.4982 145° Southeast  Level Estimated
Tue 04:50:00 PM 10.2662 35.5729 145° Southeast  Level Estimated
Tue 04:51:00 PM 10.1625 35.6475 145° Southeast  Level Estimated
Tue 04:52:00 PM 10.0588 35.7221 145° Southeast  Level Estimated
Tue 04:53:00 PM 9.9551 35.7966 145° Southeast  Level Estimated
Tue 04:54:00 PM 9.8513 35.8711 145° Southeast  Level Estimated
Tue 04:55:00 PM 9.7476 35.9455 145° Southeast  Level Estimated
Tue 04:56:00 PM 9.6438 36.0199 145° Southeast  Level Estimated
Tue 04:57:00 PM 9.5400 36.0943 145° Southeast  Level Estimated
Tue 04:58:00 PM 9.4362 36.1686 145° Southeast  Level Estimated
Tue 04:59:00 PM 9.3324 36.2428 145° Southeast  Level Estimated
Tue 05:00:00 PM 9.2286 36.3170 145° Southeast  Level Estimated
Tue 05:01:00 PM 9.1248 36.3912 145° Southeast  Level Estimated
Tue 05:02:00 PM 9.0209 36.4653 145° Southeast  Level Estimated
Tue 05:03:00 PM 8.9170 36.5394 145° Southeast  Level Estimated
Tue 05:04:00 PM 8.8131 36.6134 145° Southeast  Level Estimated
Tue 05:05:00 PM 8.7092 36.6874 145° Southeast  Level Estimated
Tue 05:06:00 PM 8.6053 36.7614 145° Southeast  Level Estimated
Tue 05:07:00 PM 8.5014 36.8353 145° Southeast  Level Estimated
Tue 05:08:00 PM 8.3974 36.9092 145° Southeast  Level Estimated
Tue 05:09:00 PM 8.2935 36.9830 145° Southeast  Level Estimated
Tue 05:10:00 PM 8.1895 37.0568 145° Southeast  Level Estimated
Tue 05:11:00 PM 8.0855 37.1305 145° Southeast  Level Estimated
Tue 05:12:00 PM 7.9815 37.2043 145° Southeast  Level Estimated
Tue 05:13:00 PM 7.8775 37.2779 145° Southeast  Level Estimated
Tue 05:14:00 PM 7.7735 37.3516 145° Southeast  Level Estimated
Tue 05:15:00 PM 7.6694 37.4252 145° Southeast  Level Estimated
Tue 05:16:00 PM 7.5654 37.4988 145° Southeast  Level Estimated
Tue 05:17:00 PM 7.4613 37.5723 145° Southeast  Level Estimated
Tue 05:18:00 PM 7.3573 37.6458 145° Southeast  Level Estimated
Tue 05:19:00 PM 7.2532 37.7193 145° Southeast  Level Estimated
Tue 05:20:00 PM 7.1491 37.7927 145° Southeast  Level Estimated
Tue 05:21:00 PM 7.0450 37.8661 145° Southeast  Level Estimated
Tue 05:22:00 PM 6.9408 37.9395 145° Southeast  Level Estimated
Tue 05:23:00 PM 6.8367 38.0128 145° Southeast  Level Estimated
Tue 05:24:00 PM 6.7326 38.0861 145° Southeast  Level Estimated
Tue 05:25:00 PM 6.6284 38.1594 145° Southeast  Level Estimated
Tue 05:26:00 PM 6.5242 38.2326 145° Southeast  Level Estimated
Tue 05:27:00 PM 6.4201 38.3058 145° Southeast  Level Estimated
Tue 05:28:00 PM 6.3159 38.3790 145° Southeast  Level Estimated
Tue 05:29:00 PM 6.2117 38.4521 145° Southeast  Level Estimated
Tue 05:30:00 PM 6.1075 38.5253 145° Southeast  Level Estimated
Tue 05:31:00 PM 6.0032 38.5984 145° Southeast  Level Estimated
Tue 05:32:00 PM 5.8990 38.6714 145° Southeast  Level Estimated
Tue 05:33:00 PM 5.7948 38.7445 145° Southeast  Level Estimated
Tue 05:34:00 PM 5.6905 38.8175 145° Southeast  Level Estimated
Tue 05:35:00 PM 5.5863 38.8904 145° Southeast  Level Estimated
Tue 05:35:37 PM 0.9790 35.5920 145° Southeast 487 560 37,000  Level FlightAware ADS-B
Tue 05:36:00 PM 5.4820 38.9634 145° Southeast  Level Estimated
Tue 05:36:17 PM 0.8950 35.6290 156° South 487 560 37,000  Level FlightAware ADS-B
Tue 05:37:02 PM 0.8010 35.6730 155° Southeast 485 558 37,000  Level FlightAware ADS-B
Tue 05:37:42 PM 0.7280 35.7250 145° Southeast 484 557 37,000  Level FlightAware ADS-B
Tue 05:38:22 PM 0.6590 35.7820 140° Southeast 485 558 37,000  Level FlightAware ADS-B
Tue 05:39:07 PM 0.5840 35.8450 140° Southeast 484 557 37,000  Level FlightAware ADS-B
Tue 05:39:47 PM 0.5140 35.9040 140° Southeast 483 556 37,000  Level FlightAware ADS-B
Tue 05:40:27 PM 0.4460 35.9610 140° Southeast 481 554 37,000  Level FlightAware ADS-B
Tue 05:41:12 PM 0.3680 36.0260 140° Southeast 479 551 37,000  Level FlightAware ADS-B
Tue 05:41:52 PM 0.3000 36.0830 140° Southeast 478 550 37,000  Level FlightAware ADS-B
Tue 05:42:37 PM 0.2250 36.1450 140° Southeast 476 548 37,000  Level FlightAware ADS-B
Tue 05:43:17 PM 0.1570 36.2020 140° Southeast 476 548 37,000  Level FlightAware ADS-B
Tue 05:44:02 PM 0.0790 36.2670 140° Southeast 474 545 37,000  Level FlightAware ADS-B
Tue 05:44:42 PM 0.0140 36.3220 140° Southeast 473 544 37,000  Level FlightAware ADS-B
Tue 05:45:22 PM -0.0550 36.3800 140° Southeast 471 542 37,000  Level FlightAware ADS-B
Tue 05:46:07 PM -0.1290 36.4420 140° Southeast 473 544 37,000  Level FlightAware ADS-B
Tue 05:46:47 PM -0.1960 36.4980 140° Southeast 473 544 37,000  Level FlightAware ADS-B
Tue 05:47:32 PM -0.2720 36.5620 140° Southeast 473 544 37,000  Level FlightAware ADS-B
Tue 05:48:12 PM -0.3410 36.6190 140° Southeast 473 544 37,000  Level FlightAware ADS-B
Tue 05:48:52 PM -0.4080 36.6750 140° Southeast 471 542 37,000  Level FlightAware ADS-B
Tue 05:49:37 PM -0.4820 36.7370 140° Southeast 471 542 37,000  Level FlightAware ADS-B
Tue 05:50:17 PM -0.5480 36.7920 140° Southeast 471 542 37,000  Level FlightAware ADS-B
Tue 05:50:57 PM -0.6160 36.8490 140° Southeast 469 540 37,000  Level FlightAware ADS-B
Tue 05:51:42 PM -0.6920 36.9130 140° Southeast 469 540 37,000  Level FlightAware ADS-B
Tue 05:52:27 PM -0.7650 36.9730 141° Southeast 469 540 37,000  Level FlightAware ADS-B
Tue 05:53:07 PM -0.8320 37.0300 140° Southeast 467 537 37,000  Level FlightAware ADS-B
Tue 05:53:52 PM -0.9030 37.0900 140° Southeast 468 539 37,000  Level FlightAware ADS-B
Tue 05:54:32 PM -0.9590 37.1390 139° Southeast 468 539 37,000  Level FlightAware ADS-B
Tue 05:55:12 PM -1.0140 37.1870 139° Southeast 468 539 37,000  Level FlightAware ADS-B
Tue 05:55:52 PM -1.0700 37.2350 139° Southeast 468 539 37,000  Level FlightAware ADS-B
Tue 05:56:32 PM -1.1250 37.2830 139° Southeast 468 539 37,000  Level FlightAware ADS-B
Tue 05:57:22 PM -1.2560 37.3850 142° Southeast 465 535 37,000  Level FlightAware ADS-B
Tue 05:58:02 PM -1.3220 37.4390 141° Southeast 464 534 37,000  Level FlightAware ADS-B
Tue 05:58:47 PM -1.3950 37.5000 140° Southeast 465 535 37,000  Level FlightAware ADS-B
Tue 05:59:27 PM -1.4620 37.5570 140° Southeast 466 536 37,000  Level FlightAware ADS-B
Tue 06:00:07 PM -1.5290 37.6130 140° Southeast 466 536 37,000  Level FlightAware ADS-B
Tue 06:00:52 PM -1.6040 37.6760 140° Southeast 467 537 37,000  Level FlightAware ADS-B
Tue 06:01:32 PM -1.6700 37.7310 140° Southeast 468 539 37,000  Level FlightAware ADS-B
Tue 06:02:17 PM -1.7430 37.7920 140° Southeast 469 540 37,000  Level FlightAware ADS-B
Tue 06:02:57 PM -1.8110 37.8490 140° Southeast 469 540 37,000  Level FlightAware ADS-B
Tue 06:03:37 PM -1.8780 37.9050 140° Southeast 471 542 37,000  Level FlightAware ADS-B
Tue 06:04:22 PM -1.9540 37.9690 140° Southeast 471 542 37,000  Level FlightAware ADS-B
Tue 06:05:02 PM -2.0190 38.0230 140° Southeast 473 544 37,000  Level FlightAware ADS-B
Tue 06:05:47 PM -2.0950 38.0870 140° Southeast 474 545 37,000  Level FlightAware ADS-B
Tue 06:06:22 PM -2.1560 38.1380 140° Southeast 476 548 37,000  Level FlightAware ADS-B
Tue 06:07:07 PM -2.2320 38.2010 140° Southeast 476 548 37,000  Level FlightAware ADS-B
Tue 06:07:52 PM -2.3080 38.2650 140° Southeast 475 547 37,000  Level FlightAware ADS-B
Tue 06:08:32 PM -2.3730 38.3190 140° Southeast 475 547 37,000  Level FlightAware ADS-B
Tue 06:09:17 PM -2.4490 38.3840 139° Southeast 476 548 37,000  Level FlightAware ADS-B
Tue 06:09:57 PM -2.5180 38.4410 140° Southeast 476 548 37,000  Level FlightAware ADS-B
Tue 06:10:37 PM -2.5850 38.4970 140° Southeast 476 548 37,000  Level FlightAware ADS-B
Tue 06:11:22 PM -2.6620 38.5620 140° Southeast 475 547 37,000  Level FlightAware ADS-B
Tue 06:12:02 PM -2.7300 38.6190 140° Southeast 474 545 37,000  Level FlightAware ADS-B
Tue 06:12:42 PM -2.7940 38.6730 140° Southeast 473 544 37,000  Level FlightAware ADS-B
Tue 06:13:27 PM -2.8610 38.7310 139° Southeast 473 544 37,000  Level FlightAware ADS-B
Tue 06:14:07 PM -2.9170 38.7790 139° Southeast 473 544 37,000  Level FlightAware ADS-B
Tue 06:14:47 PM -2.9730 38.8280 139° Southeast 473 544 37,000  Level FlightAware ADS-B
Tue 06:15:27 PM -3.0290 38.8770 139° Southeast 473 544 37,000  Level FlightAware ADS-B
Tue 06:16:07 PM -3.0850 38.9260 139° Southeast 473 544 37,000  Level FlightAware ADS-B
Tue 06:16:57 PM -3.1550 38.9870 139° Southeast 473 544 37,000  Level FlightAware ADS-B
Tue 06:17:37 PM -3.2110 39.0360 139° Southeast 473 544 37,000  Level FlightAware ADS-B
Tue 06:18:17 PM -3.2680 39.0850 139° Southeast 473 544 37,000  Level FlightAware ADS-B
Tue 06:18:57 PM -3.3240 39.1340 139° Southeast 473 544 37,000  Level FlightAware ADS-B
Tue 06:19:47 PM -3.3940 39.1950 139° Southeast 473 544 37,000  Level FlightAware ADS-B
Tue 06:20:27 PM -3.4500 39.2440 139° Southeast 473 544 37,000  Level FlightAware ADS-B
Tue 06:21:07 PM -3.5060 39.2930 139° Southeast 473 544 37,000  Level FlightAware ADS-B
Tue 06:21:47 PM -3.5620 39.3420 139° Southeast 473 544 37,000  Level FlightAware ADS-B
Tue 06:22:27 PM -3.6190 39.3910 139° Southeast 473 544 37,000  Level FlightAware ADS-B
Tue 06:25:00 PM -3.8472 39.6215 135° Southeast  Level Estimated
Tue 06:26:00 PM -3.9367 39.7119 135° Southeast  Level Estimated
Tue 06:27:00 PM -4.0262 39.8023 135° Southeast  Level Estimated
Tue 06:28:00 PM -4.1156 39.8928 135° Southeast  Level Estimated
Tue 06:29:00 PM -4.2051 39.9832 135° Southeast  Level Estimated
Tue 06:30:00 PM -4.2945 40.0737 135° Southeast  Level Estimated
Tue 06:31:00 PM -4.3840 40.1642 135° Southeast  Level Estimated
Tue 06:32:00 PM -4.4734 40.2548 135° Southeast  Level Estimated
Tue 06:33:00 PM -4.5628 40.3453 135° Southeast  Level Estimated
Tue 06:34:00 PM -4.6522 40.4359 135° Southeast  Level Estimated
Tue 06:35:00 PM -4.7416 40.5265 135° Southeast  Level Estimated
Tue 06:36:00 PM -4.8310 40.6171 135° Southeast  Level Estimated
Tue 06:37:00 PM -4.9203 40.7078 135° Southeast  Level Estimated
Tue 06:38:00 PM -5.0097 40.7985 135° Southeast  Level Estimated
Tue 06:39:00 PM -5.0990 40.8892 135° Southeast  Level Estimated
Tue 06:40:00 PM -5.1883 40.9799 135° Southeast  Level Estimated
Tue 06:41:00 PM -5.2776 41.0706 135° Southeast  Level Estimated
Tue 06:42:00 PM -5.3670 41.1614 135° Southeast  Level Estimated
Tue 06:43:00 PM -5.4562 41.2522 135° Southeast  Level Estimated
Tue 06:44:00 PM -5.5455 41.3431 135° Southeast  Level Estimated
Tue 06:45:00 PM -5.6348 41.4339 135° Southeast  Level Estimated
Tue 06:46:00 PM -5.7240 41.5248 135° Southeast  Level Estimated
Tue 06:47:00 PM -5.8133 41.6157 135° Southeast  Level Estimated
Tue 06:48:00 PM -5.9025 41.7067 135° Southeast  Level Estimated
Tue 06:49:00 PM -5.9917 41.7976 135° Southeast  Level Estimated
Tue 06:50:00 PM -6.0809 41.8886 135° Southeast  Level Estimated
Tue 06:51:00 PM -6.1700 41.9797 135° Southeast  Level Estimated
Tue 06:52:00 PM -6.2592 42.0707 135° Southeast  Level Estimated
Tue 06:53:00 PM -6.3483 42.1618 135° Southeast  Level Estimated
Tue 06:54:00 PM -6.4374 42.2529 135° Southeast  Level Estimated
Tue 06:55:00 PM -6.5266 42.3441 135° Southeast  Level Estimated
Tue 06:56:00 PM -6.6157 42.4353 135° Southeast  Level Estimated
Tue 06:57:00 PM -6.7047 42.5265 135° Southeast  Level Estimated
Tue 06:58:00 PM -6.7938 42.6178 135° Southeast  Level Estimated
Tue 06:59:00 PM -6.8828 42.7091 134° Southeast  Level Estimated
Tue 07:00:00 PM -6.9718 42.8004 134° Southeast  Level Estimated
Tue 07:01:00 PM -7.0609 42.8918 134° Southeast  Level Estimated
Tue 07:02:00 PM -7.1498 42.9831 134° Southeast  Level Estimated
Tue 07:03:00 PM -7.2388 43.0746 134° Southeast  Level Estimated
Tue 07:04:00 PM -7.3278 43.1660 134° Southeast  Level Estimated
Tue 07:05:00 PM -7.4167 43.2575 134° Southeast  Level Estimated
Tue 07:06:00 PM -7.5056 43.3491 134° Southeast  Level Estimated
Tue 07:07:00 PM -7.5945 43.4407 134° Southeast  Level Estimated
Tue 07:08:00 PM -7.6834 43.5323 134° Southeast  Level Estimated
Tue 07:09:00 PM -7.7723 43.6239 134° Southeast  Level Estimated
Tue 07:10:00 PM -7.8611 43.7156 134° Southeast  Level Estimated
Tue 07:11:00 PM -7.9499 43.8074 134° Southeast  Level Estimated
Tue 07:12:00 PM -8.0387 43.8991 134° Southeast  Level Estimated
Tue 07:13:00 PM -8.1275 43.9909 134° Southeast  Level Estimated
Tue 07:14:00 PM -8.2163 44.0828 134° Southeast  Level Estimated
Tue 07:15:00 PM -8.3050 44.1747 134° Southeast  Level Estimated
Tue 07:16:00 PM -8.3937 44.2666 134° Southeast  Level Estimated
Tue 07:17:00 PM -8.4824 44.3586 134° Southeast  Level Estimated
Tue 07:18:00 PM -8.5711 44.4506 134° Southeast  Level Estimated
Tue 07:19:00 PM -8.6597 44.5427 134° Southeast  Level Estimated
Tue 07:20:00 PM -8.7484 44.6348 134° Southeast  Level Estimated
Tue 07:21:00 PM -8.8370 44.7269 134° Southeast  Level Estimated
Tue 07:22:00 PM -8.9256 44.8191 134° Southeast  Level Estimated
Tue 07:23:00 PM -9.0141 44.9114 134° Southeast  Level Estimated
Tue 07:24:00 PM -9.1026 45.0036 134° Southeast  Level Estimated
Tue 07:25:00 PM -9.1912 45.0960 134° Southeast  Level Estimated
Tue 07:26:00 PM -9.2796 45.1884 134° Southeast  Level Estimated
Tue 07:27:00 PM -9.3681 45.2808 134° Southeast  Level Estimated
Tue 07:28:00 PM -9.4566 45.3732 134° Southeast  Level Estimated
Tue 07:29:00 PM -9.5450 45.4658 134° Southeast  Level Estimated
Tue 07:30:00 PM -9.6334 45.5583 134° Southeast  Level Estimated
Tue 07:31:00 PM -9.7217 45.6509 134° Southeast  Level Estimated
Tue 07:32:00 PM -9.8101 45.7436 134° Southeast  Level Estimated
Tue 07:33:00 PM -9.8984 45.8363 134° Southeast  Level Estimated
Tue 07:34:00 PM -9.9867 45.9291 134° Southeast  Level Estimated
Tue 07:35:00 PM -10.0750 46.0219 134° Southeast  Level Estimated
Tue 07:36:00 PM -10.1632 46.1147 134° Southeast  Level Estimated
Tue 07:37:00 PM -10.2514 46.2076 134° Southeast  Level Estimated
Tue 07:38:00 PM -10.3396 46.3006 134° Southeast  Level Estimated
Tue 07:39:00 PM -10.4278 46.3936 134° Southeast  Level Estimated
Tue 07:40:00 PM -10.5159 46.4867 134° Southeast  Level Estimated
Tue 07:41:00 PM -10.6040 46.5798 134° Southeast  Level Estimated
Tue 07:42:00 PM -10.6921 46.6730 134° Southeast  Level Estimated
Tue 07:43:00 PM -10.7802 46.7662 134° Southeast  Level Estimated
Tue 07:44:00 PM -10.8682 46.8595 134° Southeast  Level Estimated
Tue 07:45:00 PM -10.9562 46.9529 134° Southeast  Level Estimated
Tue 07:46:00 PM -11.0442 47.0463 134° Southeast  Level Estimated
Tue 07:47:00 PM -11.1321 47.1397 134° Southeast  Level Estimated
Tue 07:48:00 PM -11.2200 47.2332 134° Southeast  Level Estimated
Tue 07:49:00 PM -11.3079 47.3268 134° Southeast  Level Estimated
Tue 07:50:00 PM -11.3957 47.4204 134° Southeast  Level Estimated
Tue 07:51:00 PM -11.4836 47.5141 134° Southeast  Level Estimated
Tue 07:52:00 PM -11.5714 47.6078 134° Southeast  Level Estimated
Tue 07:53:00 PM -11.6591 47.7016 134° Southeast  Level Estimated
Tue 07:54:00 PM -11.7468 47.7955 134° Southeast  Level Estimated
Tue 07:55:00 PM -11.8345 47.8894 134° Southeast  Level Estimated
Tue 07:56:00 PM -11.9222 47.9834 134° Southeast  Level Estimated
Tue 07:57:00 PM -12.0098 48.0774 134° Southeast  Level Estimated
Tue 07:58:00 PM -12.0975 48.1715 134° Southeast  Level Estimated
Tue 07:59:00 PM -12.1850 48.2657 134° Southeast  Level Estimated
Tue 08:00:00 PM -12.2726 48.3599 134° Southeast  Level Estimated
Tue 08:01:00 PM -12.3601 48.4542 134° Southeast  Level Estimated
Tue 08:02:00 PM -12.4476 48.5486 134° Southeast  Level Estimated
Tue 08:03:00 PM -12.5350 48.6430 134° Southeast  Level Estimated
Tue 08:04:00 PM -12.6224 48.7374 133° Southeast  Level Estimated
Tue 08:05:00 PM -12.7098 48.8320 133° Southeast  Level Estimated
Tue 08:06:00 PM -12.7972 48.9266 133° Southeast  Level Estimated
Tue 08:07:00 PM -12.8845 49.0213 133° Southeast  Level Estimated
Tue 08:08:00 PM -12.9718 49.1160 133° Southeast  Level Estimated
Tue 08:09:00 PM -13.0590 49.2108 133° Southeast  Level Estimated
Tue 08:10:00 PM -13.1462 49.3057 133° Southeast  Level Estimated
Tue 08:11:00 PM -13.2334 49.4006 133° Southeast  Level Estimated
Tue 08:12:00 PM -13.3206 49.4956 133° Southeast  Level Estimated
Tue 08:13:00 PM -13.4077 49.5907 133° Southeast  Level Estimated
Tue 08:14:00 PM -13.4947 49.6859 133° Southeast  Level Estimated
Tue 08:15:00 PM -13.5818 49.7811 133° Southeast  Level Estimated
Tue 08:16:00 PM -13.6688 49.8764 133° Southeast  Level Estimated
Tue 08:17:00 PM -13.7557 49.9717 133° Southeast  Level Estimated
Tue 08:18:00 PM -13.8427 50.0671 133° Southeast  Level Estimated
Tue 08:19:00 PM -13.9296 50.1626 133° Southeast  Level Estimated
Tue 08:20:00 PM -14.0164 50.2582 133° Southeast  Level Estimated
Tue 08:21:00 PM -14.1032 50.3538 133° Southeast  Level Estimated
Tue 08:22:00 PM -14.1900 50.4496 133° Southeast  Level Estimated
Tue 08:23:00 PM -14.2767 50.5453 133° Southeast  Level Estimated
Tue 08:24:00 PM -14.3635 50.6412 133° Southeast  Level Estimated
Tue 08:25:00 PM -14.4501 50.7371 133° Southeast  Level Estimated
Tue 08:26:00 PM -14.5367 50.8331 133° Southeast  Level Estimated
Tue 08:27:00 PM -14.6233 50.9292 133° Southeast  Level Estimated
Tue 08:28:00 PM -14.7099 51.0254 133° Southeast  Level Estimated
Tue 08:29:00 PM -14.7964 51.1216 133° Southeast  Level Estimated
Tue 08:30:00 PM -14.8828 51.2179 133° Southeast  Level Estimated
Tue 08:31:00 PM -14.9693 51.3143 133° Southeast  Level Estimated
Tue 08:32:00 PM -15.0556 51.4108 133° Southeast  Level Estimated
Tue 08:33:00 PM -15.1420 51.5074 133° Southeast  Level Estimated
Tue 08:34:00 PM -15.2283 51.6040 133° Southeast  Level Estimated
Tue 08:35:00 PM -15.3146 51.7007 133° Southeast  Level Estimated
Tue 08:36:00 PM -15.4008 51.7975 133° Southeast  Level Estimated
Tue 08:37:00 PM -15.4869 51.8944 133° Southeast  Level Estimated
Tue 08:38:00 PM -15.5731 51.9913 133° Southeast  Level Estimated
Tue 08:39:00 PM -15.6592 52.0883 133° Southeast  Level Estimated
Tue 08:40:00 PM -15.7452 52.1855 133° Southeast  Level Estimated
Tue 08:41:00 PM -15.8312 52.2826 133° Southeast  Level Estimated
Tue 08:42:00 PM -15.9172 52.3799 133° Southeast  Level Estimated
Tue 08:43:00 PM -16.0031 52.4773 133° Southeast  Level Estimated
Tue 08:44:00 PM -16.0890 52.5747 133° Southeast  Level Estimated
Tue 08:45:00 PM -16.1748 52.6722 133° Southeast  Level Estimated
Tue 08:46:00 PM -16.2606 52.7699 132° Southeast  Level Estimated
Tue 08:47:00 PM -16.3464 52.8675 132° Southeast  Level Estimated
Tue 08:48:00 PM -16.4321 52.9653 132° Southeast  Level Estimated
Tue 08:49:00 PM -16.5177 53.0632 132° Southeast  Level Estimated
Tue 08:50:00 PM -16.6033 53.1612 132° Southeast  Level Estimated
Tue 08:51:00 PM -16.6889 53.2592 132° Southeast  Level Estimated
Tue 08:52:00 PM -16.7744 53.3573 132° Southeast  Level Estimated
Tue 08:53:00 PM -16.8599 53.4555 132° Southeast  Level Estimated
Tue 08:54:00 PM -16.9453 53.5538 132° Southeast  Level Estimated
Tue 08:55:00 PM -17.0307 53.6522 132° Southeast  Level Estimated
Tue 08:56:00 PM -17.1160 53.7507 132° Southeast  Level Estimated
Tue 08:57:00 PM -17.2013 53.8493 132° Southeast  Level Estimated
Tue 08:58:00 PM -17.2865 53.9480 132° Southeast  Level Estimated
Tue 08:59:00 PM -17.3717 54.0467 132° Southeast  Level Estimated
Tue 09:00:00 PM -17.4568 54.1456 132° Southeast  Level Estimated
Tue 09:01:00 PM -17.5419 54.2445 132° Southeast  Level Estimated
Tue 09:02:00 PM -17.6270 54.3436 132° Southeast  Level Estimated
Tue 09:03:00 PM -17.7120 54.4427 132° Southeast  Level Estimated
Tue 09:04:00 PM -17.7969 54.5419 132° Southeast  Level Estimated
Tue 09:05:00 PM -17.8818 54.6413 132° Southeast  Level Estimated
Tue 09:06:00 PM -17.9666 54.7407 132° Southeast  Level Estimated
Tue 09:07:00 PM -18.0514 54.8402 132° Southeast  Level Estimated
Tue 09:08:00 PM -18.1362 54.9398 132° Southeast  Level Estimated
Tue 09:09:00 PM -18.2208 55.0395 132° Southeast  Level Estimated
Tue 09:10:00 PM -18.3055 55.1393 132° Southeast  Level Estimated
Tue 09:11:00 PM -18.3901 55.2392 132° Southeast  Level Estimated
Tue 09:12:00 PM -18.4746 55.3391 132° Southeast  Level Estimated
Tue 09:13:00 PM -18.5591 55.4392 132° Southeast  Level Estimated
Tue 09:14:00 PM -18.6435 55.5394 132° Southeast  Level Estimated
Tue 09:15:00 PM -18.7278 55.6397 132° Southeast  Level Estimated
Tue 09:16:00 PM -18.8122 55.7401 132° Southeast  Level Estimated
Tue 09:17:00 PM -18.8964 55.8406 132° Southeast  Level Estimated
Tue 09:18:00 PM -18.9806 55.9412 132° Southeast  Level Estimated
Tue 09:19:00 PM -19.0648 56.0419 131° Southeast  Level Estimated
Tue 09:20:00 PM -19.1489 56.1427 131° Southeast  Level Estimated
Tue 09:21:00 PM -19.2330 56.2436 131° Southeast  Level Estimated
Tue 09:22:00 PM -19.3169 56.3446 131° Southeast  Level Estimated
Tue 09:23:00 PM -19.4009 56.4457 131° Southeast  Level Estimated
Tue 09:24:00 PM -19.4848 56.5469 131° Southeast  Level Estimated
Tue 09:25:00 PM -19.5686 56.6482 131° Southeast  Level Estimated
Tue 09:26:00 PM -19.6523 56.7496 131° Southeast  Level Estimated
Tue 09:27:00 PM -19.7360 56.8512 131° Southeast  Level Estimated
Tue 09:28:00 PM -19.8197 56.9528 131° Southeast  Level Estimated
Tue 09:29:00 PM -19.9033 57.0545 131° Southeast  Level Estimated
Tue 09:30:00 PM -19.9868 57.1564 131° Southeast  Level Estimated
Tue 09:31:00 PM -20.0703 57.2583 131° Southeast  Level Estimated
Tue 09:32:00 PM -20.1537 57.3604 131° Southeast  Level Estimated
Tue 09:33:00 PM -20.2371 57.4626 131° Southeast  Level Estimated
Tue 09:34:00 PM -20.3204 57.5648 131° Southeast  Level Estimated
Tue 09:35:00 PM -20.4036 57.6672 131° Southeast  Level Estimated
Tue 09:36:00 PM -20.4300 57.6997 131° Southeast  Level Estimated
Tue 09:37:00 PM -20.4300 57.6997 118° Southeast  Level Estimated
Tue 09:38:00 PM -20.4300 57.6997 118° Southeast  Level Estimated
Tue 09:39:00 PM -20.4300 57.6997 118° Southeast  Level Estimated
Tue 09:40:00 PM -20.4300 57.6997 118° Southeast  Level Estimated
Tue 09:41:00 PM -20.4300 57.6997 118° Southeast  Level Estimated
Tue 09:42:00 PM -20.4300 57.6997 118° Southeast  Level Estimated
Tue 09:43:00 PM -20.4300 57.6997 118° Southeast  Level Estimated
Tue 09:44:00 PM -20.4300 57.6997 118° Southeast  Level Estimated
Tue 09:45:00 PM -20.4300 57.6997 118° Southeast  Level Estimated
Tue 09:46:00 PM -20.4300 57.6997 118° Southeast  Level Estimated

Login

Don't have an account? Register now (free) for customized features, flight alerts, and more!